sensor_id;sensor_type;location;lat;lon;timestamp;P1;durP1;ratioP1;P2;durP2;ratioP2
39680;SDS011;26327;42.550;23.120;2023-04-24T06:13:16;14.50;;;6.53;;
39680;SDS011;26327;42.550;23.120;2023-04-24T06:15:42;11.05;;;6.93;;
39680;SDS011;26327;42.550;23.120;2023-04-24T06:18:08;15.48;;;6.70;;
39680;SDS011;26327;42.550;23.120;2023-04-24T06:20:35;13.75;;;7.20;;
39680;SDS011;26327;42.550;23.120;2023-04-24T06:23:00;14.25;;;7.72;;
39680;SDS011;26327;42.550;23.120;2023-04-24T06:25:26;10.95;;;6.70;;
39680;SDS011;26327;42.550;23.120;2023-04-24T06:27:52;11.93;;;6.75;;
39680;SDS011;26327;42.550;23.120;2023-04-24T06:30:17;23.40;;;6.47;;
39680;SDS011;26327;42.550;23.120;2023-04-24T06:32:43;15.75;;;7.00;;
39680;SDS011;26327;42.550;23.120;2023-04-24T06:35:08;9.80;;;6.65;;
39680;SDS011;26327;42.550;23.120;2023-04-24T06:37:34;13.88;;;6.90;;
39680;SDS011;26327;42.550;23.120;2023-04-24T06:40:00;12.20;;;6.65;;
39680;SDS011;26327;42.550;23.120;2023-04-24T06:42:26;17.83;;;7.93;;
39680;SDS011;26327;42.550;23.120;2023-04-24T06:44:51;13.95;;;7.13;;
39680;SDS011;26327;42.550;23.120;2023-04-24T06:47:16;12.25;;;6.65;;
39680;SDS011;26327;42.550;23.120;2023-04-24T06:49:43;14.57;;;7.32;;
39680;SDS011;26327;42.550;23.120;2023-04-24T06:52:09;15.02;;;6.72;;
39680;SDS011;26327;42.550;23.120;2023-04-24T06:54:34;13.32;;;6.38;;
39680;SDS011;26327;42.550;23.120;2023-04-24T06:57:00;13.77;;;7.35;;
39680;SDS011;26327;42.550;23.120;2023-04-24T06:59:28;14.38;;;6.40;;
39680;SDS011;26327;42.550;23.120;2023-04-24T07:01:55;19.92;;;9.23;;
39680;SDS011;26327;42.550;23.120;2023-04-24T07:04:20;14.05;;;8.30;;
39680;SDS011;26327;42.550;23.120;2023-04-24T07:06:46;12.88;;;7.07;;
39680;SDS011;26327;42.550;23.120;2023-04-24T07:09:12;20.55;;;9.05;;
39680;SDS011;26327;42.550;23.120;2023-04-24T07:11:39;15.60;;;6.10;;
39680;SDS011;26327;42.550;23.120;2023-04-24T07:14:05;15.38;;;7.28;;
39680;SDS011;26327;42.550;23.120;2023-04-24T07:16:31;9.80;;;5.90;;
39680;SDS011;26327;42.550;23.120;2023-04-24T07:18:56;13.25;;;5.28;;
39680;SDS011;26327;42.550;23.120;2023-04-24T07:21:22;18.73;;;6.53;;
39680;SDS011;26327;42.550;23.120;2023-04-24T07:23:47;11.82;;;5.38;;
39680;SDS011;26327;42.550;23.120;2023-04-24T07:26:12;14.05;;;5.82;;
39680;SDS011;26327;42.550;23.120;2023-04-24T07:28:39;16.02;;;6.03;;
39680;SDS011;26327;42.550;23.120;2023-04-24T07:31:05;14.10;;;6.15;;
39680;SDS011;26327;42.550;23.120;2023-04-24T07:33:31;10.07;;;5.65;;
39680;SDS011;26327;42.550;23.120;2023-04-24T07:35:57;8.45;;;4.30;;
39680;SDS011;26327;42.550;23.120;2023-04-24T07:38:23;9.90;;;4.85;;
39680;SDS011;26327;42.550;23.120;2023-04-24T07:40:50;9.02;;;4.80;;
39680;SDS011;26327;42.550;23.120;2023-04-24T07:43:16;8.70;;;5.35;;
39680;SDS011;26327;42.550;23.120;2023-04-24T07:45:41;12.98;;;6.38;;
39680;SDS011;26327;42.550;23.120;2023-04-24T07:48:08;9.82;;;5.60;;
39680;SDS011;26327;42.550;23.120;2023-04-24T07:50:34;11.80;;;5.82;;
39680;SDS011;26327;42.550;23.120;2023-04-24T07:52:59;17.35;;;6.75;;
39680;SDS011;26327;42.550;23.120;2023-04-24T07:55:25;13.70;;;7.03;;
39680;SDS011;26327;42.550;23.120;2023-04-24T07:57:50;13.32;;;6.20;;
39680;SDS011;26327;42.550;23.120;2023-04-24T08:00:16;13.23;;;6.18;;
39680;SDS011;26327;42.550;23.120;2023-04-24T08:02:41;8.23;;;4.85;;
39680;SDS011;26327;42.550;23.120;2023-04-24T08:05:07;7.82;;;4.57;;
39680;SDS011;26327;42.550;23.120;2023-04-24T08:07:33;7.63;;;4.80;;
39680;SDS011;26327;42.550;23.120;2023-04-24T08:10:00;10.35;;;4.85;;
39680;SDS011;26327;42.550;23.120;2023-04-24T08:12:28;8.93;;;4.20;;
39680;SDS011;26327;42.550;23.120;2023-04-24T08:14:54;10.20;;;4.30;;
39680;SDS011;26327;42.550;23.120;2023-04-24T08:17:20;10.25;;;4.72;;
39680;SDS011;26327;42.550;23.120;2023-04-24T08:19:46;13.50;;;5.75;;
39680;SDS011;26327;42.550;23.120;2023-04-24T08:22:16;8.45;;;4.53;;
39680;SDS011;26327;42.550;23.120;2023-04-24T08:24:42;16.10;;;5.22;;
39680;SDS011;26327;42.550;23.120;2023-04-24T08:27:08;9.70;;;4.05;;
39680;SDS011;26327;42.550;23.120;2023-04-24T08:29:34;8.18;;;4.43;;
39680;SDS011;26327;42.550;23.120;2023-04-24T08:31:59;9.98;;;4.90;;
39680;SDS011;26327;42.550;23.120;2023-04-24T08:34:25;11.75;;;4.50;;
39680;SDS011;26327;42.550;23.120;2023-04-24T08:36:50;7.65;;;4.28;;
39680;SDS011;26327;42.550;23.120;2023-04-24T08:39:15;11.43;;;4.60;;
39680;SDS011;26327;42.550;23.120;2023-04-24T08:41:43;8.13;;;4.05;;
39680;SDS011;26327;42.550;23.120;2023-04-24T08:44:10;7.65;;;4.03;;
39680;SDS011;26327;42.550;23.120;2023-04-24T08:46:37;7.03;;;3.60;;
39680;SDS011;26327;42.550;23.120;2023-04-24T08:49:04;7.88;;;3.40;;
39680;SDS011;26327;42.550;23.120;2023-04-24T08:51:30;8.85;;;3.67;;
39680;SDS011;26327;42.550;23.120;2023-04-24T08:53:56;7.80;;;3.45;;
39680;SDS011;26327;42.550;23.120;2023-04-24T08:56:22;8.73;;;3.65;;
39680;SDS011;26327;42.550;23.120;2023-04-24T08:58:50;6.13;;;3.70;;
39680;SDS011;26327;42.550;23.120;2023-04-24T09:01:17;6.32;;;3.60;;
39680;SDS011;26327;42.550;23.120;2023-04-24T09:03:45;6.38;;;3.45;;
39680;SDS011;26327;42.550;23.120;2023-04-24T09:06:13;6.65;;;4.22;;
39680;SDS011;26327;42.550;23.120;2023-04-24T09:08:40;5.15;;;3.50;;
39680;SDS011;26327;42.550;23.120;2023-04-24T09:11:07;6.10;;;3.38;;
39680;SDS011;26327;42.550;23.120;2023-04-24T09:13:34;7.60;;;3.28;;
39680;SDS011;26327;42.550;23.120;2023-04-24T09:16:00;5.32;;;3.22;;
39680;SDS011;26327;42.550;23.120;2023-04-24T09:18:25;7.53;;;3.55;;
39680;SDS011;26327;42.550;23.120;2023-04-24T09:21:01;5.53;;;3.35;;
39680;SDS011;26327;42.550;23.120;2023-04-24T09:23:29;7.18;;;3.95;;
39680;SDS011;26327;42.550;23.120;2023-04-24T09:25:55;7.28;;;4.13;;
39680;SDS011;26327;42.550;23.120;2023-04-24T09:28:40;5.00;;;3.90;;
39680;SDS011;26327;42.550;23.120;2023-04-24T09:31:13;6.20;;;3.60;;
39680;SDS011;26327;42.550;23.120;2023-04-24T09:34:19;6.60;;;3.70;;
39680;SDS011;26327;42.550;23.120;2023-04-24T09:36:35;7.32;;;3.70;;
39680;SDS011;26327;42.550;23.120;2023-04-24T09:39:03;4.57;;;3.15;;
39680;SDS011;26327;42.550;23.120;2023-04-24T09:41:46;7.13;;;3.50;;
39680;SDS011;26327;42.550;23.120;2023-04-24T09:44:14;5.70;;;4.03;;
39680;SDS011;26327;42.550;23.120;2023-04-24T09:46:42;6.18;;;3.85;;
39680;SDS011;26327;42.550;23.120;2023-04-24T09:49:09;8.07;;;3.85;;
39680;SDS011;26327;42.550;23.120;2023-04-24T09:51:37;5.20;;;3.63;;
39680;SDS011;26327;42.550;23.120;2023-04-24T09:54:03;8.10;;;3.45;;
39680;SDS011;26327;42.550;23.120;2023-04-24T09:56:33;6.53;;;3.60;;
39680;SDS011;26327;42.550;23.120;2023-04-24T09:59:05;6.30;;;3.88;;
39680;SDS011;26327;42.550;23.120;2023-04-24T10:01:32;7.10;;;4.10;;
39680;SDS011;26327;42.550;23.120;2023-04-24T10:03:58;7.70;;;3.28;;
39680;SDS011;26327;42.550;23.120;2023-04-24T10:06:29;5.28;;;3.10;;
39680;SDS011;26327;42.550;23.120;2023-04-24T10:08:59;5.13;;;3.17;;
39680;SDS011;26327;42.550;23.120;2023-04-24T10:11:27;7.10;;;3.47;;
39680;SDS011;26327;42.550;23.120;2023-04-24T10:13:53;5.88;;;3.58;;
39680;SDS011;26327;42.550;23.120;2023-04-24T10:16:23;7.30;;;4.15;;
39680;SDS011;26327;42.550;23.120;2023-04-24T10:18:49;10.40;;;3.83;;
39680;SDS011;26327;42.550;23.120;2023-04-24T10:21:15;5.55;;;3.53;;
39680;SDS011;26327;42.550;23.120;2023-04-24T10:23:42;12.10;;;4.18;;
39680;SDS011;26327;42.550;23.120;2023-04-24T10:26:12;5.43;;;3.55;;
39680;SDS011;26327;42.550;23.120;2023-04-24T10:28:43;9.60;;;3.78;;
39680;SDS011;26327;42.550;23.120;2023-04-24T10:31:10;6.70;;;3.60;;
39680;SDS011;26327;42.550;23.120;2023-04-24T10:33:37;7.55;;;3.72;;
39680;SDS011;26327;42.550;23.120;2023-04-24T10:36:06;5.03;;;3.53;;
39680;SDS011;26327;42.550;23.120;2023-04-24T10:38:34;9.45;;;3.80;;
39680;SDS011;26327;42.550;23.120;2023-04-24T10:41:08;7.55;;;4.07;;
39680;SDS011;26327;42.550;23.120;2023-04-24T10:43:40;7.18;;;3.83;;
39680;SDS011;26327;42.550;23.120;2023-04-24T10:46:08;8.88;;;4.97;;
39680;SDS011;26327;42.550;23.120;2023-04-24T10:48:35;12.70;;;4.68;;
39680;SDS011;26327;42.550;23.120;2023-04-24T10:51:10;8.25;;;4.70;;
39680;SDS011;26327;42.550;23.120;2023-04-24T10:56:03;5.38;;;4.00;;
39680;SDS011;26327;42.550;23.120;2023-04-24T10:58:37;7.72;;;3.80;;
39680;SDS011;26327;42.550;23.120;2023-04-24T11:01:13;6.30;;;3.88;;
39680;SDS011;26327;42.550;23.120;2023-04-24T11:03:50;8.23;;;4.32;;
39680;SDS011;26327;42.550;23.120;2023-04-24T11:06:27;4.88;;;4.30;;
39680;SDS011;26327;42.550;23.120;2023-04-24T11:09:04;5.97;;;4.60;;
39680;SDS011;26327;42.550;23.120;2023-04-24T11:11:34;5.00;;;3.95;;
39680;SDS011;26327;42.550;23.120;2023-04-24T11:14:03;6.65;;;4.10;;
39680;SDS011;26327;42.550;23.120;2023-04-24T11:32:56;7.93;;;5.22;;
39680;SDS011;26327;42.550;23.120;2023-04-24T11:35:17;19.33;;;8.00;;
39680;SDS011;26327;42.550;23.120;2023-04-24T11:37:48;6.50;;;4.60;;
39680;SDS011;26327;42.550;23.120;2023-04-24T11:40:15;10.18;;;5.50;;
39680;SDS011;26327;42.550;23.120;2023-04-24T11:42:43;8.20;;;4.57;;
39680;SDS011;26327;42.550;23.120;2023-04-24T11:45:11;9.82;;;4.93;;
39680;SDS011;26327;42.550;23.120;2023-04-24T11:47:38;7.15;;;4.82;;
39680;SDS011;26327;42.550;23.120;2023-04-24T11:50:04;6.28;;;4.78;;
39680;SDS011;26327;42.550;23.120;2023-04-24T11:52:32;10.52;;;5.25;;
39680;SDS011;26327;42.550;23.120;2023-04-24T11:55:01;11.20;;;6.95;;
39680;SDS011;26327;42.550;23.120;2023-04-24T11:57:27;9.00;;;6.80;;
39680;SDS011;26327;42.550;23.120;2023-04-24T11:59:58;11.25;;;7.00;;
39680;SDS011;26327;42.550;23.120;2023-04-24T12:02:24;8.82;;;6.18;;
39680;SDS011;26327;42.550;23.120;2023-04-24T12:04:51;7.88;;;6.03;;
39680;SDS011;26327;42.550;23.120;2023-04-24T12:07:17;9.50;;;6.07;;
39680;SDS011;26327;42.550;23.120;2023-04-24T12:09:47;11.95;;;9.45;;
39680;SDS011;26327;42.550;23.120;2023-04-24T12:12:15;7.82;;;6.55;;
39680;SDS011;26327;42.550;23.120;2023-04-24T12:14:48;14.52;;;8.20;;
39680;SDS011;26327;42.550;23.120;2023-04-24T12:17:17;16.85;;;8.10;;
39680;SDS011;26327;42.550;23.120;2023-04-24T12:19:46;9.38;;;6.13;;
39680;SDS011;26327;42.550;23.120;2023-04-24T12:22:13;11.20;;;9.20;;
39680;SDS011;26327;42.550;23.120;2023-04-24T12:27:31;13.13;;;9.43;;
39680;SDS011;26327;42.550;23.120;2023-04-24T12:29:58;52.70;;;17.13;;
39680;SDS011;26327;42.550;23.120;2023-04-24T12:32:26;13.27;;;7.68;;
39680;SDS011;26327;42.550;23.120;2023-04-24T12:34:52;11.77;;;7.07;;
39680;SDS011;26327;42.550;23.120;2023-04-24T12:37:19;17.02;;;9.60;;
39680;SDS011;26327;42.550;23.120;2023-04-24T12:40:30;31.30;;;18.27;;
39680;SDS011;26327;42.550;23.120;2023-04-24T12:42:35;27.63;;;18.35;;
39680;SDS011;26327;42.550;23.120;2023-04-24T12:45:07;13.02;;;7.65;;
39680;SDS011;26327;42.550;23.120;2023-04-24T12:47:33;10.15;;;6.80;;
39680;SDS011;26327;42.550;23.120;2023-04-24T12:49:59;10.40;;;6.90;;
39680;SDS011;26327;42.550;23.120;2023-04-24T12:52:26;13.75;;;10.60;;
39680;SDS011;26327;42.550;23.120;2023-04-24T12:54:54;17.80;;;10.85;;
39680;SDS011;26327;42.550;23.120;2023-04-24T12:57:21;23.08;;;14.55;;
39680;SDS011;26327;42.550;23.120;2023-04-24T12:59:47;45.58;;;22.98;;
39680;SDS011;26327;42.550;23.120;2023-04-24T13:02:12;15.85;;;10.48;;
39680;SDS011;26327;42.550;23.120;2023-04-24T13:04:38;10.45;;;7.20;;
39680;SDS011;26327;42.550;23.120;2023-04-24T13:07:04;7.68;;;6.40;;
39680;SDS011;26327;42.550;23.120;2023-04-24T13:09:30;9.52;;;5.72;;
39680;SDS011;26327;42.550;23.120;2023-04-24T13:11:56;8.00;;;5.63;;
39680;SDS011;26327;42.550;23.120;2023-04-24T13:14:22;8.35;;;5.20;;
39680;SDS011;26327;42.550;23.120;2023-04-24T13:16:47;6.50;;;5.22;;
39680;SDS011;26327;42.550;23.120;2023-04-24T13:19:13;27.10;;;10.50;;
39680;SDS011;26327;42.550;23.120;2023-04-24T13:21:38;42.63;;;15.27;;
39680;SDS011;26327;42.550;23.120;2023-04-24T13:24:04;12.95;;;10.25;;
39680;SDS011;26327;42.550;23.120;2023-04-24T13:26:30;12.85;;;7.60;;
39680;SDS011;26327;42.550;23.120;2023-04-24T13:28:56;8.65;;;6.38;;
39680;SDS011;26327;42.550;23.120;2023-04-24T13:31:21;10.07;;;6.68;;
39680;SDS011;26327;42.550;23.120;2023-04-24T13:33:47;10.35;;;7.85;;
39680;SDS011;26327;42.550;23.120;2023-04-24T13:36:13;69.35;;;22.80;;
39680;SDS011;26327;42.550;23.120;2023-04-24T13:38:38;91.13;;;30.00;;
39680;SDS011;26327;42.550;23.120;2023-04-24T13:41:04;13.48;;;7.88;;
39680;SDS011;26327;42.550;23.120;2023-04-24T13:43:29;13.27;;;7.90;;
39680;SDS011;26327;42.550;23.120;2023-04-24T13:45:55;24.05;;;10.15;;
39680;SDS011;26327;42.550;23.120;2023-04-24T13:48:20;16.50;;;9.07;;
39680;SDS011;26327;42.550;23.120;2023-04-24T13:50:46;16.05;;;10.88;;
39680;SDS011;26327;42.550;23.120;2023-04-24T13:53:13;184.98;;;44.55;;
39680;SDS011;26327;42.550;23.120;2023-04-24T13:55:39;37.75;;;16.88;;
39680;SDS011;26327;42.550;23.120;2023-04-24T13:58:04;13.50;;;9.00;;
39680;SDS011;26327;42.550;23.120;2023-04-24T14:00:29;42.03;;;15.82;;
39680;SDS011;26327;42.550;23.120;2023-04-24T14:02:56;10.98;;;6.53;;
39680;SDS011;26327;42.550;23.120;2023-04-24T14:05:21;9.23;;;7.78;;
39680;SDS011;26327;42.550;23.120;2023-04-24T14:07:47;8.68;;;7.72;;
39680;SDS011;26327;42.550;23.120;2023-04-24T14:10:12;9.05;;;7.68;;
39680;SDS011;26327;42.550;23.120;2023-04-24T14:12:37;11.05;;;6.78;;
39680;SDS011;26327;42.550;23.120;2023-04-24T14:15:03;10.02;;;6.75;;
39680;SDS011;26327;42.550;23.120;2023-04-24T14:17:29;9.00;;;6.20;;
39680;SDS011;26327;42.550;23.120;2023-04-24T14:19:55;19.75;;;6.53;;
39680;SDS011;26327;42.550;23.120;2023-04-24T14:22:21;12.57;;;6.38;;
39680;SDS011;26327;42.550;23.120;2023-04-24T14:24:47;31.05;;;12.82;;
39680;SDS011;26327;42.550;23.120;2023-04-24T14:27:12;8.90;;;4.88;;
39680;SDS011;26327;42.550;23.120;2023-04-24T14:29:38;10.80;;;3.30;;
39680;SDS011;26327;42.550;23.120;2023-04-24T14:32:04;12.50;;;3.40;;
39680;SDS011;26327;42.550;23.120;2023-04-24T14:34:29;8.80;;;3.47;;
39680;SDS011;26327;42.550;23.120;2023-04-24T14:36:54;5.68;;;3.63;;
39680;SDS011;26327;42.550;23.120;2023-04-24T14:39:20;5.75;;;3.28;;
39680;SDS011;26327;42.550;23.120;2023-04-24T14:41:46;6.28;;;3.38;;
39680;SDS011;26327;42.550;23.120;2023-04-24T14:44:11;10.65;;;3.40;;
39680;SDS011;26327;42.550;23.120;2023-04-24T14:46:37;7.32;;;4.00;;
39680;SDS011;26327;42.550;23.120;2023-04-24T14:49:02;10.25;;;6.55;;
39680;SDS011;26327;42.550;23.120;2023-04-24T14:51:27;6.43;;;3.90;;
39680;SDS011;26327;42.550;23.120;2023-04-24T14:53:53;4.85;;;3.38;;
39680;SDS011;26327;42.550;23.120;2023-04-24T14:56:18;26.55;;;10.85;;
39680;SDS011;26327;42.550;23.120;2023-04-24T14:58:44;22.25;;;6.65;;
39680;SDS011;26327;42.550;23.120;2023-04-24T15:01:10;18.65;;;6.10;;
39680;SDS011;26327;42.550;23.120;2023-04-24T15:03:35;26.38;;;8.05;;
39680;SDS011;26327;42.550;23.120;2023-04-24T15:06:01;35.60;;;10.27;;
39680;SDS011;26327;42.550;23.120;2023-04-24T15:08:27;37.15;;;10.00;;
39680;SDS011;26327;42.550;23.120;2023-04-24T15:10:52;23.55;;;6.90;;
39680;SDS011;26327;42.550;23.120;2023-04-24T15:13:18;21.77;;;5.13;;
39680;SDS011;26327;42.550;23.120;2023-04-24T15:15:45;9.93;;;4.95;;
39680;SDS011;26327;42.550;23.120;2023-04-24T15:18:12;12.23;;;3.97;;
39680;SDS011;26327;42.550;23.120;2023-04-24T15:20:37;11.75;;;5.45;;
39680;SDS011;26327;42.550;23.120;2023-04-24T15:23:04;8.52;;;4.32;;
39680;SDS011;26327;42.550;23.120;2023-04-24T15:25:30;10.40;;;4.45;;
39680;SDS011;26327;42.550;23.120;2023-04-24T15:27:56;8.23;;;4.72;;
39680;SDS011;26327;42.550;23.120;2023-04-24T15:30:22;10.65;;;4.05;;
39680;SDS011;26327;42.550;23.120;2023-04-24T15:32:48;6.82;;;4.07;;
39680;SDS011;26327;42.550;23.120;2023-04-24T15:35:13;10.02;;;5.05;;
39680;SDS011;26327;42.550;23.120;2023-04-24T15:37:39;11.73;;;7.95;;
39680;SDS011;26327;42.550;23.120;2023-04-24T15:40:05;10.60;;;5.93;;
39680;SDS011;26327;42.550;23.120;2023-04-24T15:42:32;9.45;;;4.90;;
39680;SDS011;26327;42.550;23.120;2023-04-24T15:44:57;7.95;;;4.13;;
39680;SDS011;26327;42.550;23.120;2023-04-24T15:47:23;10.35;;;4.70;;
39680;SDS011;26327;42.550;23.120;2023-04-24T15:49:49;4.97;;;4.00;;
39680;SDS011;26327;42.550;23.120;2023-04-24T15:52:16;5.88;;;3.70;;
39680;SDS011;26327;42.550;23.120;2023-04-24T15:54:41;6.40;;;4.82;;
39680;SDS011;26327;42.550;23.120;2023-04-24T15:57:07;6.63;;;4.88;;
39680;SDS011;26327;42.550;23.120;2023-04-24T15:59:32;8.85;;;4.43;;
39680;SDS011;26327;42.550;23.120;2023-04-24T16:01:58;18.27;;;8.07;;
39680;SDS011;26327;42.550;23.120;2023-04-24T16:04:23;34.33;;;20.00;;
39680;SDS011;26327;42.550;23.120;2023-04-24T16:06:48;129.82;;;60.13;;
39680;SDS011;26327;42.550;23.120;2023-04-24T16:09:14;118.93;;;46.97;;
39680;SDS011;26327;42.550;23.120;2023-04-24T16:11:39;140.57;;;57.50;;
39680;SDS011;26327;42.550;23.120;2023-04-24T16:14:05;83.18;;;34.63;;
39680;SDS011;26327;42.550;23.120;2023-04-24T16:16:30;44.60;;;25.10;;
39680;SDS011;26327;42.550;23.120;2023-04-24T16:18:56;18.42;;;8.27;;
39680;SDS011;26327;42.550;23.120;2023-04-24T16:21:21;19.95;;;10.65;;
39680;SDS011;26327;42.550;23.120;2023-04-24T16:23:47;17.60;;;10.90;;
39680;SDS011;26327;42.550;23.120;2023-04-24T16:26:13;36.38;;;25.90;;
39680;SDS011;26327;42.550;23.120;2023-04-24T16:28:39;6.45;;;4.90;;
39680;SDS011;26327;42.550;23.120;2023-04-24T16:31:05;9.70;;;5.45;;
39680;SDS011;26327;42.550;23.120;2023-04-24T16:33:30;7.75;;;4.13;;
39680;SDS011;26327;42.550;23.120;2023-04-24T16:35:56;8.38;;;5.15;;
39680;SDS011;26327;42.550;23.120;2023-04-24T16:38:21;9.65;;;4.97;;
39680;SDS011;26327;42.550;23.120;2023-04-24T16:40:49;9.60;;;5.82;;
39680;SDS011;26327;42.550;23.120;2023-04-24T16:43:14;9.02;;;5.47;;
39680;SDS011;26327;42.550;23.120;2023-04-24T16:45:40;7.35;;;5.82;;
39680;SDS011;26327;42.550;23.120;2023-04-24T16:48:05;11.07;;;5.90;;
39680;SDS011;26327;42.550;23.120;2023-04-24T16:50:31;7.40;;;5.85;;
39680;SDS011;26327;42.550;23.120;2023-04-24T16:52:57;8.68;;;5.10;;
39680;SDS011;26327;42.550;23.120;2023-04-24T16:55:22;10.00;;;6.55;;
39680;SDS011;26327;42.550;23.120;2023-04-24T16:57:49;7.30;;;5.68;;
39680;SDS011;26327;42.550;23.120;2023-04-24T17:00:15;9.85;;;6.63;;
39680;SDS011;26327;42.550;23.120;2023-04-24T17:02:40;7.22;;;5.50;;
39680;SDS011;26327;42.550;23.120;2023-04-24T17:05:06;8.18;;;5.80;;
39680;SDS011;26327;42.550;23.120;2023-04-24T17:07:31;7.60;;;6.15;;
39680;SDS011;26327;42.550;23.120;2023-04-24T17:09:57;9.73;;;6.63;;
39680;SDS011;26327;42.550;23.120;2023-04-24T17:12:22;8.43;;;6.13;;
39680;SDS011;26327;42.550;23.120;2023-04-24T17:14:48;9.93;;;7.72;;
39680;SDS011;26327;42.550;23.120;2023-04-24T17:17:13;9.05;;;6.88;;
39680;SDS011;26327;42.550;23.120;2023-04-24T17:19:38;13.63;;;6.28;;
39680;SDS011;26327;42.550;23.120;2023-04-24T17:22:04;6.78;;;3.88;;
39680;SDS011;26327;42.550;23.120;2023-04-24T17:24:30;9.80;;;4.70;;
39680;SDS011;26327;42.550;23.120;2023-04-24T17:26:55;5.00;;;2.85;;
39680;SDS011;26327;42.550;23.120;2023-04-24T17:29:21;8.43;;;4.07;;
39680;SDS011;26327;42.550;23.120;2023-04-24T17:31:47;7.15;;;3.22;;
39680;SDS011;26327;42.550;23.120;2023-04-24T17:34:12;5.85;;;3.00;;
39680;SDS011;26327;42.550;23.120;2023-04-24T17:36:38;4.10;;;2.25;;
39680;SDS011;26327;42.550;23.120;2023-04-24T17:39:03;8.75;;;3.63;;
39680;SDS011;26327;42.550;23.120;2023-04-24T17:41:29;8.57;;;4.38;;
39680;SDS011;26327;42.550;23.120;2023-04-24T17:43:54;10.23;;;6.20;;
39680;SDS011;26327;42.550;23.120;2023-04-24T17:46:20;10.88;;;8.05;;
39680;SDS011;26327;42.550;23.120;2023-04-24T17:48:46;24.30;;;15.23;;
39680;SDS011;26327;42.550;23.120;2023-04-24T17:51:11;16.20;;;10.57;;
39680;SDS011;26327;42.550;23.120;2023-04-24T17:53:37;11.95;;;6.47;;
39680;SDS011;26327;42.550;23.120;2023-04-24T17:56:02;14.95;;;10.45;;
39680;SDS011;26327;42.550;23.120;2023-04-24T17:58:28;25.08;;;14.00;;
39680;SDS011;26327;42.550;23.120;2023-04-24T18:00:55;24.60;;;15.35;;
39680;SDS011;26327;42.550;23.120;2023-04-24T18:03:20;5.28;;;3.25;;
39680;SDS011;26327;42.550;23.120;2023-04-24T18:05:45;7.53;;;4.80;;
39680;SDS011;26327;42.550;23.120;2023-04-24T18:08:11;8.63;;;6.57;;
39680;SDS011;26327;42.550;23.120;2023-04-24T18:10:37;6.65;;;4.68;;
39680;SDS011;26327;42.550;23.120;2023-04-24T18:13:03;19.08;;;10.45;;
39680;SDS011;26327;42.550;23.120;2023-04-24T18:15:29;18.35;;;10.38;;
39680;SDS011;26327;42.550;23.120;2023-04-24T18:17:55;11.93;;;8.00;;
39680;SDS011;26327;42.550;23.120;2023-04-24T18:20:20;22.52;;;12.40;;
39680;SDS011;26327;42.550;23.120;2023-04-24T18:22:46;9.43;;;5.82;;
39680;SDS011;26327;42.550;23.120;2023-04-24T18:25:11;5.80;;;3.67;;
39680;SDS011;26327;42.550;23.120;2023-04-24T18:27:38;6.82;;;3.33;;
39680;SDS011;26327;42.550;23.120;2023-04-24T18:30:06;5.32;;;3.10;;
39680;SDS011;26327;42.550;23.120;2023-04-24T18:32:33;6.63;;;3.67;;
39680;SDS011;26327;42.550;23.120;2023-04-24T18:34:59;11.80;;;7.32;;
39680;SDS011;26327;42.550;23.120;2023-04-24T18:37:24;10.10;;;3.85;;
39680;SDS011;26327;42.550;23.120;2023-04-24T18:39:50;6.20;;;3.63;;
39680;SDS011;26327;42.550;23.120;2023-04-24T18:42:16;7.20;;;4.75;;
39680;SDS011;26327;42.550;23.120;2023-04-24T18:44:41;14.38;;;10.18;;
39680;SDS011;26327;42.550;23.120;2023-04-24T18:47:07;13.68;;;8.32;;
39680;SDS011;26327;42.550;23.120;2023-04-24T18:49:34;16.98;;;8.20;;
39680;SDS011;26327;42.550;23.120;2023-04-24T18:51:59;17.63;;;7.03;;
39680;SDS011;26327;42.550;23.120;2023-04-24T18:54:25;14.02;;;6.47;;
39680;SDS011;26327;42.550;23.120;2023-04-24T18:56:51;10.93;;;5.88;;
39680;SDS011;26327;42.550;23.120;2023-04-24T18:59:16;8.35;;;5.80;;
39680;SDS011;26327;42.550;23.120;2023-04-24T19:01:42;9.02;;;5.82;;
39680;SDS011;26327;42.550;23.120;2023-04-24T19:04:08;9.23;;;5.75;;
39680;SDS011;26327;42.550;23.120;2023-04-24T19:06:33;11.38;;;6.57;;
39680;SDS011;26327;42.550;23.120;2023-04-24T19:08:59;14.73;;;8.07;;
39680;SDS011;26327;42.550;23.120;2023-04-24T19:11:25;11.73;;;7.75;;
39680;SDS011;26327;42.550;23.120;2023-04-24T19:13:50;12.65;;;7.45;;
39680;SDS011;26327;42.550;23.120;2023-04-24T19:16:16;12.98;;;7.22;;
39680;SDS011;26327;42.550;23.120;2023-04-24T19:18:41;11.70;;;7.40;;
39680;SDS011;26327;42.550;23.120;2023-04-24T19:21:06;9.60;;;6.95;;
39680;SDS011;26327;42.550;23.120;2023-04-24T19:23:32;10.40;;;7.57;;
39680;SDS011;26327;42.550;23.120;2023-04-24T19:26:01;11.20;;;7.03;;
39680;SDS011;26327;42.550;23.120;2023-04-24T19:28:27;10.23;;;6.82;;
39680;SDS011;26327;42.550;23.120;2023-04-24T19:30:53;11.43;;;7.47;;
39680;SDS011;26327;42.550;23.120;2023-04-24T19:33:22;14.77;;;8.23;;
39680;SDS011;26327;42.550;23.120;2023-04-24T19:35:48;7.25;;;4.80;;
39680;SDS011;26327;42.550;23.120;2023-04-24T19:38:13;11.15;;;6.15;;
39680;SDS011;26327;42.550;23.120;2023-04-24T19:40:38;7.78;;;4.78;;
39680;SDS011;26327;42.550;23.120;2023-04-24T19:43:04;7.95;;;4.10;;
39680;SDS011;26327;42.550;23.120;2023-04-24T19:45:29;7.65;;;4.32;;
39680;SDS011;26327;42.550;23.120;2023-04-24T19:47:54;8.02;;;4.43;;
39680;SDS011;26327;42.550;23.120;2023-04-24T19:50:20;8.90;;;4.72;;
39680;SDS011;26327;42.550;23.120;2023-04-24T19:52:45;6.65;;;3.42;;
39680;SDS011;26327;42.550;23.120;2023-04-24T19:55:11;5.78;;;3.15;;
39680;SDS011;26327;42.550;23.120;2023-04-24T19:57:36;5.22;;;3.58;;
39680;SDS011;26327;42.550;23.120;2023-04-24T20:00:02;5.72;;;3.92;;
39680;SDS011;26327;42.550;23.120;2023-04-24T20:02:29;5.47;;;3.20;;
39680;SDS011;26327;42.550;23.120;2023-04-24T20:04:55;4.03;;;2.17;;
39680;SDS011;26327;42.550;23.120;2023-04-24T20:07:20;5.45;;;3.05;;
39680;SDS011;26327;42.550;23.120;2023-04-24T20:09:46;5.13;;;2.50;;
39680;SDS011;26327;42.550;23.120;2023-04-24T20:12:11;7.40;;;3.20;;
39680;SDS011;26327;42.550;23.120;2023-04-24T20:14:36;6.72;;;3.58;;
39680;SDS011;26327;42.550;23.120;2023-04-24T20:17:02;10.10;;;3.60;;
39680;SDS011;26327;42.550;23.120;2023-04-24T20:19:27;6.97;;;3.78;;
39680;SDS011;26327;42.550;23.120;2023-04-24T20:21:53;4.45;;;2.60;;
39680;SDS011;26327;42.550;23.120;2023-04-24T20:24:18;5.07;;;2.95;;
39680;SDS011;26327;42.550;23.120;2023-04-24T20:26:44;5.43;;;3.28;;
39680;SDS011;26327;42.550;23.120;2023-04-24T20:29:09;15.80;;;7.15;;
39680;SDS011;26327;42.550;23.120;2023-04-24T20:31:36;6.60;;;3.00;;
39680;SDS011;26327;42.550;23.120;2023-04-24T20:34:02;8.02;;;3.30;;
39680;SDS011;26327;42.550;23.120;2023-04-24T20:36:28;8.00;;;3.80;;
39680;SDS011;26327;42.550;23.120;2023-04-24T20:38:53;18.40;;;8.60;;
39680;SDS011;26327;42.550;23.120;2023-04-24T20:41:18;14.93;;;7.63;;
39680;SDS011;26327;42.550;23.120;2023-04-24T20:43:44;8.43;;;3.58;;
39680;SDS011;26327;42.550;23.120;2023-04-24T20:46:10;12.32;;;7.90;;
39680;SDS011;26327;42.550;23.120;2023-04-24T20:48:35;9.57;;;7.47;;
39680;SDS011;26327;42.550;23.120;2023-04-24T20:51:01;7.35;;;4.45;;
39680;SDS011;26327;42.550;23.120;2023-04-24T20:53:26;6.82;;;3.72;;
39680;SDS011;26327;42.550;23.120;2023-04-24T20:55:51;6.25;;;3.25;;